Terminal Aerodrome Forecast
Issued by NWS Wilmington, OH

Current Version | Previous Version | Text Only | Print | Product List | Glossary Off
Versions: 1 2 3 4 5 6 7 8 9 10 11 12 13 14 15 16 17 18 19 20

514
FTUS41 KILN 202300
TAFILN
TAF
KILN 202320Z 2100/2124 04008KT P6SM -RA BKN080
     FM211000 02008KT P6SM VCSH OVC035
     FM211400 36008KT P6SM BKN035
     FM211800 32012KT P6SM SCT040=

USA.gov is the U.S. government's official web portal to all federal, state and local government web resources and services.